sensor_id;sensor_type;location;lat;lon;timestamp;temperature;humidity
42095;DHT22;27753;55.724;37.612;2022-07-17T00:00:37;17.70;76.70
42095;DHT22;27753;55.724;37.612;2022-07-17T00:03:11;17.70;76.60
42095;DHT22;27753;55.724;37.612;2022-07-17T00:05:37;17.80;76.60
42095;DHT22;27753;55.724;37.612;2022-07-17T00:08:05;17.80;76.60
42095;DHT22;27753;55.724;37.612;2022-07-17T00:10:32;17.80;76.60
42095;DHT22;27753;55.724;37.612;2022-07-17T00:12:58;17.80;76.80
42095;DHT22;27753;55.724;37.612;2022-07-17T00:15:24;17.80;76.80
42095;DHT22;27753;55.724;37.612;2022-07-17T00:17:50;17.80;77.00
42095;DHT22;27753;55.724;37.612;2022-07-17T00:20:16;17.80;76.90
42095;DHT22;27753;55.724;37.612;2022-07-17T00:22:42;17.80;76.90
42095;DHT22;27753;55.724;37.612;2022-07-17T00:25:09;17.80;76.90
42095;DHT22;27753;55.724;37.612;2022-07-17T00:27:36;17.80;77.00
42095;DHT22;27753;55.724;37.612;2022-07-17T00:30:03;17.80;77.20
42095;DHT22;27753;55.724;37.612;2022-07-17T00:32:29;17.80;77.40
42095;DHT22;27753;55.724;37.612;2022-07-17T00:34:55;17.80;77.50
42095;DHT22;27753;55.724;37.612;2022-07-17T00:37:21;17.70;77.50
42095;DHT22;27753;55.724;37.612;2022-07-17T00:39:47;17.70;77.80
42095;DHT22;27753;55.724;37.612;2022-07-17T00:42:15;17.70;77.90
42095;DHT22;27753;55.724;37.612;2022-07-17T00:44:43;17.70;78.10
42095;DHT22;27753;55.724;37.612;2022-07-17T00:47:09;17.70;78.40
42095;DHT22;27753;55.724;37.612;2022-07-17T00:49:36;17.70;77.90
42095;DHT22;27753;55.724;37.612;2022-07-17T00:52:02;17.60;78.60
42095;DHT22;27753;55.724;37.612;2022-07-17T00:54:29;17.60;78.90
42095;DHT22;27753;55.724;37.612;2022-07-17T00:56:56;17.60;79.00
42095;DHT22;27753;55.724;37.612;2022-07-17T00:59:24;17.60;79.10
42095;DHT22;27753;55.724;37.612;2022-07-17T01:01:50;17.60;79.20
42095;DHT22;27753;55.724;37.612;2022-07-17T01:04:16;17.60;79.40
42095;DHT22;27753;55.724;37.612;2022-07-17T01:06:42;17.60;79.50
42095;DHT22;27753;55.724;37.612;2022-07-17T01:09:10;17.60;79.70
42095;DHT22;27753;55.724;37.612;2022-07-17T01:11:36;17.60;79.80
42095;DHT22;27753;55.724;37.612;2022-07-17T01:14:02;17.60;79.90
42095;DHT22;27753;55.724;37.612;2022-07-17T01:16:29;17.60;79.90
42095;DHT22;27753;55.724;37.612;2022-07-17T01:18:56;17.60;79.90
42095;DHT22;27753;55.724;37.612;2022-07-17T01:21:22;17.50;80.00
42095;DHT22;27753;55.724;37.612;2022-07-17T01:23:48;17.50;80.10
42095;DHT22;27753;55.724;37.612;2022-07-17T01:26:14;17.60;80.30
42095;DHT22;27753;55.724;37.612;2022-07-17T01:28:39;17.60;80.90
42095;DHT22;27753;55.724;37.612;2022-07-17T01:31:05;17.60;80.40
42095;DHT22;27753;55.724;37.612;2022-07-17T01:33:31;17.60;80.30
42095;DHT22;27753;55.724;37.612;2022-07-17T01:35:57;17.60;80.40
42095;DHT22;27753;55.724;37.612;2022-07-17T01:38:23;17.60;80.30
42095;DHT22;27753;55.724;37.612;2022-07-17T01:40:48;17.60;80.40
42095;DHT22;27753;55.724;37.612;2022-07-17T01:43:14;17.70;80.50
42095;DHT22;27753;55.724;37.612;2022-07-17T01:45:40;17.70;80.40
42095;DHT22;27753;55.724;37.612;2022-07-17T01:48:06;17.70;80.50
42095;DHT22;27753;55.724;37.612;2022-07-17T01:50:32;17.70;80.50
42095;DHT22;27753;55.724;37.612;2022-07-17T01:52:58;17.80;80.70
42095;DHT22;27753;55.724;37.612;2022-07-17T01:55:24;17.80;80.80
42095;DHT22;27753;55.724;37.612;2022-07-17T01:57:50;17.80;80.80
42095;DHT22;27753;55.724;37.612;2022-07-17T02:00:17;17.90;80.60
42095;DHT22;27753;55.724;37.612;2022-07-17T02:02:44;17.90;80.00
42095;DHT22;27753;55.724;37.612;2022-07-17T02:05:10;17.90;80.00
42095;DHT22;27753;55.724;37.612;2022-07-17T02:07:36;18.00;79.70
42095;DHT22;27753;55.724;37.612;2022-07-17T02:10:06;18.00;79.60
42095;DHT22;27753;55.724;37.612;2022-07-17T02:12:32;18.10;79.70
42095;DHT22;27753;55.724;37.612;2022-07-17T02:14:58;18.10;79.30
42095;DHT22;27753;55.724;37.612;2022-07-17T02:17:23;18.10;79.40
42095;DHT22;27753;55.724;37.612;2022-07-17T02:19:49;18.10;79.60
42095;DHT22;27753;55.724;37.612;2022-07-17T02:22:15;18.10;79.70
42095;DHT22;27753;55.724;37.612;2022-07-17T02:24:41;18.10;79.80
42095;DHT22;27753;55.724;37.612;2022-07-17T02:27:07;18.10;79.80
42095;DHT22;27753;55.724;37.612;2022-07-17T02:29:32;18.20;79.80
42095;DHT22;27753;55.724;37.612;2022-07-17T02:31:58;18.20;79.80
42095;DHT22;27753;55.724;37.612;2022-07-17T02:34:24;18.20;79.80
42095;DHT22;27753;55.724;37.612;2022-07-17T02:36:50;18.30;79.50
42095;DHT22;27753;55.724;37.612;2022-07-17T02:39:15;18.30;79.30
42095;DHT22;27753;55.724;37.612;2022-07-17T02:41:41;18.30;79.80
42095;DHT22;27753;55.724;37.612;2022-07-17T02:44:07;18.30;79.70
42095;DHT22;27753;55.724;37.612;2022-07-17T02:46:33;18.30;80.30
42095;DHT22;27753;55.724;37.612;2022-07-17T02:48:59;18.30;80.10
42095;DHT22;27753;55.724;37.612;2022-07-17T02:51:25;18.30;80.40
42095;DHT22;27753;55.724;37.612;2022-07-17T02:53:51;18.30;79.60
42095;DHT22;27753;55.724;37.612;2022-07-17T02:56:16;18.30;80.10
42095;DHT22;27753;55.724;37.612;2022-07-17T02:58:42;18.30;80.60
42095;DHT22;27753;55.724;37.612;2022-07-17T03:01:08;18.30;80.90
42095;DHT22;27753;55.724;37.612;2022-07-17T03:03:34;18.30;81.20
42095;DHT22;27753;55.724;37.612;2022-07-17T03:06:00;18.30;81.30
42095;DHT22;27753;55.724;37.612;2022-07-17T03:08:26;18.30;81.10
42095;DHT22;27753;55.724;37.612;2022-07-17T03:10:52;18.30;81.20
42095;DHT22;27753;55.724;37.612;2022-07-17T03:13:17;18.40;81.30
42095;DHT22;27753;55.724;37.612;2022-07-17T03:15:44;18.40;81.40
42095;DHT22;27753;55.724;37.612;2022-07-17T03:18:10;18.40;81.30
42095;DHT22;27753;55.724;37.612;2022-07-17T03:20:36;18.50;81.10
42095;DHT22;27753;55.724;37.612;2022-07-17T03:23:01;18.50;80.70
42095;DHT22;27753;55.724;37.612;2022-07-17T03:25:27;18.50;80.80
42095;DHT22;27753;55.724;37.612;2022-07-17T03:27:53;18.50;80.90
42095;DHT22;27753;55.724;37.612;2022-07-17T03:30:19;18.50;80.80
42095;DHT22;27753;55.724;37.612;2022-07-17T03:32:45;18.60;81.00
42095;DHT22;27753;55.724;37.612;2022-07-17T03:35:11;18.70;81.00
42095;DHT22;27753;55.724;37.612;2022-07-17T03:37:37;18.70;80.70
42095;DHT22;27753;55.724;37.612;2022-07-17T03:40:04;18.80;80.60
42095;DHT22;27753;55.724;37.612;2022-07-17T03:42:31;18.70;80.40
42095;DHT22;27753;55.724;37.612;2022-07-17T03:44:57;18.70;80.60
42095;DHT22;27753;55.724;37.612;2022-07-17T03:47:23;18.80;80.60
42095;DHT22;27753;55.724;37.612;2022-07-17T03:49:48;18.90;80.00
42095;DHT22;27753;55.724;37.612;2022-07-17T03:52:14;18.90;79.40
42095;DHT22;27753;55.724;37.612;2022-07-17T03:54:40;19.00;79.30
42095;DHT22;27753;55.724;37.612;2022-07-17T03:57:06;19.10;79.00
42095;DHT22;27753;55.724;37.612;2022-07-17T03:59:32;19.20;78.50
42095;DHT22;27753;55.724;37.612;2022-07-17T04:01:57;19.40;77.90
42095;DHT22;27753;55.724;37.612;2022-07-17T04:04:23;19.50;77.50
42095;DHT22;27753;55.724;37.612;2022-07-17T04:06:49;19.50;77.20
42095;DHT22;27753;55.724;37.612;2022-07-17T04:09:15;19.50;77.60
42095;DHT22;27753;55.724;37.612;2022-07-17T04:11:40;19.50;78.00
42095;DHT22;27753;55.724;37.612;2022-07-17T04:14:06;19.50;77.60
42095;DHT22;27753;55.724;37.612;2022-07-17T04:16:32;19.40;77.60
42095;DHT22;27753;55.724;37.612;2022-07-17T04:18:58;19.40;77.90
42095;DHT22;27753;55.724;37.612;2022-07-17T04:21:24;19.30;77.90
42095;DHT22;27753;55.724;37.612;2022-07-17T04:23:49;19.20;78.40
42095;DHT22;27753;55.724;37.612;2022-07-17T04:26:15;19.10;78.80
42095;DHT22;27753;55.724;37.612;2022-07-17T04:28:41;19.10;79.10
42095;DHT22;27753;55.724;37.612;2022-07-17T04:31:07;19.10;78.30
42095;DHT22;27753;55.724;37.612;2022-07-17T04:33:33;19.20;78.50
42095;DHT22;27753;55.724;37.612;2022-07-17T04:35:59;19.40;77.20
42095;DHT22;27753;55.724;37.612;2022-07-17T04:38:25;19.40;77.00
42095;DHT22;27753;55.724;37.612;2022-07-17T04:40:51;19.60;75.60
42095;DHT22;27753;55.724;37.612;2022-07-17T04:43:16;19.80;74.90
42095;DHT22;27753;55.724;37.612;2022-07-17T04:45:42;19.80;74.20
42095;DHT22;27753;55.724;37.612;2022-07-17T04:48:08;19.90;72.60
42095;DHT22;27753;55.724;37.612;2022-07-17T04:50:34;19.90;72.40
42095;DHT22;27753;55.724;37.612;2022-07-17T04:53:00;20.00;71.80
42095;DHT22;27753;55.724;37.612;2022-07-17T04:55:26;20.00;71.40
42095;DHT22;27753;55.724;37.612;2022-07-17T04:57:52;20.00;71.80
42095;DHT22;27753;55.724;37.612;2022-07-17T05:00:19;20.20;71.70
42095;DHT22;27753;55.724;37.612;2022-07-17T05:02:46;20.30;70.60
42095;DHT22;27753;55.724;37.612;2022-07-17T05:05:12;20.40;69.80
42095;DHT22;27753;55.724;37.612;2022-07-17T05:07:38;20.60;68.60
42095;DHT22;27753;55.724;37.612;2022-07-17T05:10:04;20.60;67.90
42095;DHT22;27753;55.724;37.612;2022-07-17T05:12:30;20.70;67.50
42095;DHT22;27753;55.724;37.612;2022-07-17T05:14:56;20.80;66.80
42095;DHT22;27753;55.724;37.612;2022-07-17T05:17:22;20.90;66.10
42095;DHT22;27753;55.724;37.612;2022-07-17T05:19:48;20.90;65.80
42095;DHT22;27753;55.724;37.612;2022-07-17T05:22:14;21.10;65.40
42095;DHT22;27753;55.724;37.612;2022-07-17T05:24:40;21.20;64.50
42095;DHT22;27753;55.724;37.612;2022-07-17T05:27:06;21.10;63.40
42095;DHT22;27753;55.724;37.612;2022-07-17T05:29:32;21.10;63.20
42095;DHT22;27753;55.724;37.612;2022-07-17T05:31:58;21.20;63.10
42095;DHT22;27753;55.724;37.612;2022-07-17T05:34:24;21.40;63.10
42095;DHT22;27753;55.724;37.612;2022-07-17T05:36:49;21.80;63.10
42095;DHT22;27753;55.724;37.612;2022-07-17T05:39:15;23.10;61.30
42095;DHT22;27753;55.724;37.612;2022-07-17T05:41:41;24.20;57.50
42095;DHT22;27753;55.724;37.612;2022-07-17T05:44:07;24.90;55.10
42095;DHT22;27753;55.724;37.612;2022-07-17T05:46:33;24.90;53.70
42095;DHT22;27753;55.724;37.612;2022-07-17T05:48:59;24.50;54.20
42095;DHT22;27753;55.724;37.612;2022-07-17T05:51:25;24.10;54.40
42095;DHT22;27753;55.724;37.612;2022-07-17T05:53:51;23.90;54.50
42095;DHT22;27753;55.724;37.612;2022-07-17T05:56:17;23.80;54.80
42095;DHT22;27753;55.724;37.612;2022-07-17T06:01:09;24.40;54.80
42095;DHT22;27753;55.724;37.612;2022-07-17T06:03:34;27.00;50.40
42095;DHT22;27753;55.724;37.612;2022-07-17T06:06:00;28.40;47.30
42095;DHT22;27753;55.724;37.612;2022-07-17T06:08:26;29.20;45.30
42095;DHT22;27753;55.724;37.612;2022-07-17T06:10:52;30.10;44.00
42095;DHT22;27753;55.724;37.612;2022-07-17T06:13:17;31.30;42.50
42095;DHT22;27753;55.724;37.612;2022-07-17T06:15:43;32.40;40.60
42095;DHT22;27753;55.724;37.612;2022-07-17T06:18:09;33.20;39.20
42095;DHT22;27753;55.724;37.612;2022-07-17T06:20:35;34.50;40.00
42095;DHT22;27753;55.724;37.612;2022-07-17T06:23:01;34.90;37.60
42095;DHT22;27753;55.724;37.612;2022-07-17T06:25:26;36.10;36.80
42095;DHT22;27753;55.724;37.612;2022-07-17T06:27:52;37.70;36.90
42095;DHT22;27753;55.724;37.612;2022-07-17T06:30:18;38.00;34.60
42095;DHT22;27753;55.724;37.612;2022-07-17T06:32:44;39.20;33.60
42095;DHT22;27753;55.724;37.612;2022-07-17T06:35:10;39.80;32.20
42095;DHT22;27753;55.724;37.612;2022-07-17T06:40:03;40.10;31.30
42095;DHT22;27753;55.724;37.612;2022-07-17T06:42:29;40.20;30.40
42095;DHT22;27753;55.724;37.612;2022-07-17T06:44:54;40.50;30.10
42095;DHT22;27753;55.724;37.612;2022-07-17T06:47:20;40.60;30.80
42095;DHT22;27753;55.724;37.612;2022-07-17T06:49:46;40.30;30.70
42095;DHT22;27753;55.724;37.612;2022-07-17T06:52:12;39.60;30.50
42095;DHT22;27753;55.724;37.612;2022-07-17T06:54:38;39.40;31.00
42095;DHT22;27753;55.724;37.612;2022-07-17T06:57:03;39.10;31.00
42095;DHT22;27753;55.724;37.612;2022-07-17T06:59:29;38.90;31.10
42095;DHT22;27753;55.724;37.612;2022-07-17T07:01:55;39.30;31.50
42095;DHT22;27753;55.724;37.612;2022-07-17T07:04:21;39.50;30.80
42095;DHT22;27753;55.724;37.612;2022-07-17T07:06:47;39.50;30.40
42095;DHT22;27753;55.724;37.612;2022-07-17T07:09:13;40.10;30.20
42095;DHT22;27753;55.724;37.612;2022-07-17T07:11:39;40.80;30.60
42095;DHT22;27753;55.724;37.612;2022-07-17T07:14:05;41.20;29.70
42095;DHT22;27753;55.724;37.612;2022-07-17T07:16:32;41.10;30.50
42095;DHT22;27753;55.724;37.612;2022-07-17T07:18:58;40.70;29.70
42095;DHT22;27753;55.724;37.612;2022-07-17T07:21:23;40.20;29.70
42095;DHT22;27753;55.724;37.612;2022-07-17T07:23:52;40.50;29.70
42095;DHT22;27753;55.724;37.612;2022-07-17T07:26:18;40.60;29.70
42095;DHT22;27753;55.724;37.612;2022-07-17T07:28:44;40.80;29.30
42095;DHT22;27753;55.724;37.612;2022-07-17T07:31:09;41.10;29.10
42095;DHT22;27753;55.724;37.612;2022-07-17T07:38:28;41.20;29.10
42095;DHT22;27753;55.724;37.612;2022-07-17T07:40:53;41.00;30.00
42095;DHT22;27753;55.724;37.612;2022-07-17T07:43:19;40.80;29.00
42095;DHT22;27753;55.724;37.612;2022-07-17T07:45:45;39.20;29.80
42095;DHT22;27753;55.724;37.612;2022-07-17T08:00:48;37.10;30.60
42095;DHT22;27753;55.724;37.612;2022-07-17T08:03:14;38.90;30.20
42095;DHT22;27753;55.724;37.612;2022-07-17T08:05:40;39.10;30.00
42095;DHT22;27753;55.724;37.612;2022-07-17T08:15:24;40.10;30.10
42095;DHT22;27753;55.724;37.612;2022-07-17T08:17:52;37.70;30.50
42095;DHT22;27753;55.724;37.612;2022-07-17T08:20:18;38.50;30.80
42095;DHT22;27753;55.724;37.612;2022-07-17T08:32:34;41.40;29.40
42095;DHT22;27753;55.724;37.612;2022-07-17T08:35:00;42.60;27.90
42095;DHT22;27753;55.724;37.612;2022-07-17T08:37:26;43.10;27.50
42095;DHT22;27753;55.724;37.612;2022-07-17T08:39:52;43.40;28.40
42095;DHT22;27753;55.724;37.612;2022-07-17T08:42:18;41.90;27.20
42095;DHT22;27753;55.724;37.612;2022-07-17T08:44:45;39.40;28.10
42095;DHT22;27753;55.724;37.612;2022-07-17T08:47:14;36.80;29.40
42095;DHT22;27753;55.724;37.612;2022-07-17T08:49:45;34.50;31.70
42095;DHT22;27753;55.724;37.612;2022-07-17T08:52:12;32.40;34.80
42095;DHT22;27753;55.724;37.612;2022-07-17T08:54:39;30.80;37.10
42095;DHT22;27753;55.724;37.612;2022-07-17T08:57:05;29.60;39.00
42095;DHT22;27753;55.724;37.612;2022-07-17T08:59:31;28.60;40.40
42095;DHT22;27753;55.724;37.612;2022-07-17T09:01:59;27.80;41.10
42095;DHT22;27753;55.724;37.612;2022-07-17T09:04:24;27.20;42.00
42095;DHT22;27753;55.724;37.612;2022-07-17T09:07:01;26.80;42.30
42095;DHT22;27753;55.724;37.612;2022-07-17T09:09:28;26.30;42.60
42095;DHT22;27753;55.724;37.612;2022-07-17T09:11:54;25.90;43.80
42095;DHT22;27753;55.724;37.612;2022-07-17T09:14:21;25.80;44.50
42095;DHT22;27753;55.724;37.612;2022-07-17T09:16:55;26.00;44.00
42095;DHT22;27753;55.724;37.612;2022-07-17T09:19:33;26.20;44.00
42095;DHT22;27753;55.724;37.612;2022-07-17T09:24:56;25.70;43.90
42095;DHT22;27753;55.724;37.612;2022-07-17T09:27:32;25.40;44.40
42095;DHT22;27753;55.724;37.612;2022-07-17T09:30:07;25.10;45.00
42095;DHT22;27753;55.724;37.612;2022-07-17T09:32:37;24.90;45.50
42095;DHT22;27753;55.724;37.612;2022-07-17T09:35:05;24.70;46.30
42095;DHT22;27753;55.724;37.612;2022-07-17T09:37:32;24.70;47.50
42095;DHT22;27753;55.724;37.612;2022-07-17T09:39:59;24.90;46.10
42095;DHT22;27753;55.724;37.612;2022-07-17T09:42:34;25.00;46.40
42095;DHT22;27753;55.724;37.612;2022-07-17T09:47:27;25.30;45.90
42095;DHT22;27753;55.724;37.612;2022-07-17T09:49:55;25.50;45.20
42095;DHT22;27753;55.724;37.612;2022-07-17T09:52:24;25.40;45.60
42095;DHT22;27753;55.724;37.612;2022-07-17T09:54:52;25.30;44.50
42095;DHT22;27753;55.724;37.612;2022-07-17T09:57:22;25.10;45.10
42095;DHT22;27753;55.724;37.612;2022-07-17T09:59:50;25.70;44.60
42095;DHT22;27753;55.724;37.612;2022-07-17T10:02:19;27.20;43.10
42095;DHT22;27753;55.724;37.612;2022-07-17T10:04:46;28.00;40.80
42095;DHT22;27753;55.724;37.612;2022-07-17T10:07:12;28.10;41.20
42095;DHT22;27753;55.724;37.612;2022-07-17T10:09:39;27.90;40.90
42095;DHT22;27753;55.724;37.612;2022-07-17T10:12:06;27.80;40.90
42095;DHT22;27753;55.724;37.612;2022-07-17T10:14:34;27.80;40.60
42095;DHT22;27753;55.724;37.612;2022-07-17T10:17:10;27.80;40.60
42095;DHT22;27753;55.724;37.612;2022-07-17T10:19:48;28.20;40.80
42095;DHT22;27753;55.724;37.612;2022-07-17T10:22:14;28.30;40.10
42095;DHT22;27753;55.724;37.612;2022-07-17T10:24:57;28.50;40.10
42095;DHT22;27753;55.724;37.612;2022-07-17T10:27:30;28.70;40.20
42095;DHT22;27753;55.724;37.612;2022-07-17T10:30:05;28.70;39.20
42095;DHT22;27753;55.724;37.612;2022-07-17T10:32:31;28.70;39.00
42095;DHT22;27753;55.724;37.612;2022-07-17T10:35:08;28.30;38.90
42095;DHT22;27753;55.724;37.612;2022-07-17T10:45:29;27.00;41.80
42095;DHT22;27753;55.724;37.612;2022-07-17T10:48:09;26.90;42.60
42095;DHT22;27753;55.724;37.612;2022-07-17T10:50:48;26.80;42.30
42095;DHT22;27753;55.724;37.612;2022-07-17T10:53:21;26.50;43.00
42095;DHT22;27753;55.724;37.612;2022-07-17T10:56:00;26.10;43.10
42095;DHT22;27753;55.724;37.612;2022-07-17T11:01:02;25.90;44.00
42095;DHT22;27753;55.724;37.612;2022-07-17T11:03:29;26.00;43.60
42095;DHT22;27753;55.724;37.612;2022-07-17T11:06:01;26.10;44.20
42095;DHT22;27753;55.724;37.612;2022-07-17T11:08:30;26.30;44.50
42095;DHT22;27753;55.724;37.612;2022-07-17T11:10:57;26.60;44.10
42095;DHT22;27753;55.724;37.612;2022-07-17T11:13:23;26.90;43.10
42095;DHT22;27753;55.724;37.612;2022-07-17T11:15:49;26.90;42.80
42095;DHT22;27753;55.724;37.612;2022-07-17T11:18:17;26.90;41.80
42095;DHT22;27753;55.724;37.612;2022-07-17T11:20:57;26.80;41.50
42095;DHT22;27753;55.724;37.612;2022-07-17T11:23:29;26.70;41.30
42095;DHT22;27753;55.724;37.612;2022-07-17T11:26:06;26.40;40.90
42095;DHT22;27753;55.724;37.612;2022-07-17T11:28:33;26.10;42.20
42095;DHT22;27753;55.724;37.612;2022-07-17T11:31:00;25.90;42.20
42095;DHT22;27753;55.724;37.612;2022-07-17T11:33:26;25.80;42.10
42095;DHT22;27753;55.724;37.612;2022-07-17T11:35:52;25.60;41.90
42095;DHT22;27753;55.724;37.612;2022-07-17T11:38:29;25.50;42.10
42095;DHT22;27753;55.724;37.612;2022-07-17T11:40:56;25.30;42.10
42095;DHT22;27753;55.724;37.612;2022-07-17T11:43:22;25.20;44.40
42095;DHT22;27753;55.724;37.612;2022-07-17T11:45:48;25.00;43.70
42095;DHT22;27753;55.724;37.612;2022-07-17T11:48:14;24.80;45.00
42095;DHT22;27753;55.724;37.612;2022-07-17T11:50:40;24.50;45.20
42095;DHT22;27753;55.724;37.612;2022-07-17T11:53:06;24.30;45.40
42095;DHT22;27753;55.724;37.612;2022-07-17T11:55:39;24.20;45.80
42095;DHT22;27753;55.724;37.612;2022-07-17T11:58:06;24.50;46.30
42095;DHT22;27753;55.724;37.612;2022-07-17T12:00:32;24.50;45.80
42095;DHT22;27753;55.724;37.612;2022-07-17T12:03:05;24.60;45.40
42095;DHT22;27753;55.724;37.612;2022-07-17T12:05:33;24.60;46.10
42095;DHT22;27753;55.724;37.612;2022-07-17T12:08:00;24.60;44.90
42095;DHT22;27753;55.724;37.612;2022-07-17T12:10:28;24.60;43.90
42095;DHT22;27753;55.724;37.612;2022-07-17T12:13:00;24.60;43.50
42095;DHT22;27753;55.724;37.612;2022-07-17T12:15:47;24.60;43.40
42095;DHT22;27753;55.724;37.612;2022-07-17T12:18:24;24.70;42.30
42095;DHT22;27753;55.724;37.612;2022-07-17T12:21:03;24.80;41.90
42095;DHT22;27753;55.724;37.612;2022-07-17T12:23:34;24.80;41.70
42095;DHT22;27753;55.724;37.612;2022-07-17T12:26:10;24.90;41.40
42095;DHT22;27753;55.724;37.612;2022-07-17T12:28:37;24.90;40.00
42095;DHT22;27753;55.724;37.612;2022-07-17T12:31:03;24.90;40.10
42095;DHT22;27753;55.724;37.612;2022-07-17T12:33:29;25.00;40.20
42095;DHT22;27753;55.724;37.612;2022-07-17T12:35:55;24.90;40.20
42095;DHT22;27753;55.724;37.612;2022-07-17T12:38:21;25.00;39.40
42095;DHT22;27753;55.724;37.612;2022-07-17T12:40:47;24.90;39.70
42095;DHT22;27753;55.724;37.612;2022-07-17T12:43:13;25.00;39.40
42095;DHT22;27753;55.724;37.612;2022-07-17T12:45:39;25.10;39.90
42095;DHT22;27753;55.724;37.612;2022-07-17T12:48:05;25.30;40.70
42095;DHT22;27753;55.724;37.612;2022-07-17T12:50:31;25.40;39.30
42095;DHT22;27753;55.724;37.612;2022-07-17T12:52:57;25.50;38.80
42095;DHT22;27753;55.724;37.612;2022-07-17T12:55:23;25.40;38.50
42095;DHT22;27753;55.724;37.612;2022-07-17T12:57:48;25.40;39.10
42095;DHT22;27753;55.724;37.612;2022-07-17T13:00:14;25.50;38.60
42095;DHT22;27753;55.724;37.612;2022-07-17T13:02:40;25.60;37.70
42095;DHT22;27753;55.724;37.612;2022-07-17T13:05:07;25.50;37.80
42095;DHT22;27753;55.724;37.612;2022-07-17T13:07:33;25.40;38.10
42095;DHT22;27753;55.724;37.612;2022-07-17T13:09:59;25.50;38.40
42095;DHT22;27753;55.724;37.612;2022-07-17T13:12:25;25.60;38.80
42095;DHT22;27753;55.724;37.612;2022-07-17T13:14:50;25.70;38.50
42095;DHT22;27753;55.724;37.612;2022-07-17T13:17:16;25.70;38.80
42095;DHT22;27753;55.724;37.612;2022-07-17T13:19:42;25.80;38.30
42095;DHT22;27753;55.724;37.612;2022-07-17T13:22:08;25.80;38.90
42095;DHT22;27753;55.724;37.612;2022-07-17T13:24:34;25.90;39.00
42095;DHT22;27753;55.724;37.612;2022-07-17T13:27:00;25.90;38.90
42095;DHT22;27753;55.724;37.612;2022-07-17T13:29:26;25.80;38.30
42095;DHT22;27753;55.724;37.612;2022-07-17T13:31:53;25.70;38.50
42095;DHT22;27753;55.724;37.612;2022-07-17T13:34:19;25.70;38.60
42095;DHT22;27753;55.724;37.612;2022-07-17T13:36:45;25.80;38.90
42095;DHT22;27753;55.724;37.612;2022-07-17T13:39:11;25.80;39.10
42095;DHT22;27753;55.724;37.612;2022-07-17T13:41:37;25.90;39.80
42095;DHT22;27753;55.724;37.612;2022-07-17T13:44:05;26.10;38.60
42095;DHT22;27753;55.724;37.612;2022-07-17T13:46:31;26.20;38.20
42095;DHT22;27753;55.724;37.612;2022-07-17T13:48:57;26.30;38.40
42095;DHT22;27753;55.724;37.612;2022-07-17T13:51:23;26.20;38.20
42095;DHT22;27753;55.724;37.612;2022-07-17T13:53:49;26.10;38.40
42095;DHT22;27753;55.724;37.612;2022-07-17T13:56:15;26.00;38.30
42095;DHT22;27753;55.724;37.612;2022-07-17T13:58:41;25.80;38.20
42095;DHT22;27753;55.724;37.612;2022-07-17T14:01:07;25.70;38.70
42095;DHT22;27753;55.724;37.612;2022-07-17T14:03:33;25.60;38.70
42095;DHT22;27753;55.724;37.612;2022-07-17T14:05:59;25.70;39.00
42095;DHT22;27753;55.724;37.612;2022-07-17T14:08:24;25.80;39.00
42095;DHT22;27753;55.724;37.612;2022-07-17T14:10:50;25.90;39.20
42095;DHT22;27753;55.724;37.612;2022-07-17T14:13:16;25.90;39.90
42095;DHT22;27753;55.724;37.612;2022-07-17T14:15:42;25.70;40.10
42095;DHT22;27753;55.724;37.612;2022-07-17T14:18:08;25.80;40.40
42095;DHT22;27753;55.724;37.612;2022-07-17T14:20:34;25.80;40.80
42095;DHT22;27753;55.724;37.612;2022-07-17T14:23:00;25.90;40.30
42095;DHT22;27753;55.724;37.612;2022-07-17T14:25:26;25.90;40.30
42095;DHT22;27753;55.724;37.612;2022-07-17T14:27:51;25.70;39.70
42095;DHT22;27753;55.724;37.612;2022-07-17T14:30:17;25.60;40.00
42095;DHT22;27753;55.724;37.612;2022-07-17T14:32:43;25.50;40.30
42095;DHT22;27753;55.724;37.612;2022-07-17T14:35:09;25.40;40.20
42095;DHT22;27753;55.724;37.612;2022-07-17T14:37:35;25.30;40.40
42095;DHT22;27753;55.724;37.612;2022-07-17T14:40:01;25.20;41.30
42095;DHT22;27753;55.724;37.612;2022-07-17T14:42:28;25.10;40.90
42095;DHT22;27753;55.724;37.612;2022-07-17T14:44:53;25.00;41.50
42095;DHT22;27753;55.724;37.612;2022-07-17T14:47:19;25.00;41.40
42095;DHT22;27753;55.724;37.612;2022-07-17T14:49:45;24.90;41.30
42095;DHT22;27753;55.724;37.612;2022-07-17T14:52:11;25.00;41.00
42095;DHT22;27753;55.724;37.612;2022-07-17T14:54:37;24.90;40.50
42095;DHT22;27753;55.724;37.612;2022-07-17T14:57:03;24.80;41.20
42095;DHT22;27753;55.724;37.612;2022-07-17T14:59:29;24.80;41.30
42095;DHT22;27753;55.724;37.612;2022-07-17T15:01:54;24.80;41.20
42095;DHT22;27753;55.724;37.612;2022-07-17T15:04:20;24.70;40.90
42095;DHT22;27753;55.724;37.612;2022-07-17T15:06:46;24.60;41.10
42095;DHT22;27753;55.724;37.612;2022-07-17T15:09:12;24.60;41.20
42095;DHT22;27753;55.724;37.612;2022-07-17T15:14:04;24.50;41.50
42095;DHT22;27753;55.724;37.612;2022-07-17T15:18:57;24.30;45.50
42095;DHT22;27753;55.724;37.612;2022-07-17T15:28:42;23.90;47.60
42095;DHT22;27753;55.724;37.612;2022-07-17T15:31:08;23.20;50.90
42095;DHT22;27753;55.724;37.612;2022-07-17T15:33:33;23.00;52.50
42095;DHT22;27753;55.724;37.612;2022-07-17T15:36:00;22.80;52.40
42095;DHT22;27753;55.724;37.612;2022-07-17T15:38:27;22.80;52.60
42095;DHT22;27753;55.724;37.612;2022-07-17T15:40:53;22.70;52.90
42095;DHT22;27753;55.724;37.612;2022-07-17T15:43:18;22.70;53.00
42095;DHT22;27753;55.724;37.612;2022-07-17T15:45:45;22.60;52.70
42095;DHT22;27753;55.724;37.612;2022-07-17T15:48:10;22.60;52.60
42095;DHT22;27753;55.724;37.612;2022-07-17T15:50:36;22.60;52.30
42095;DHT22;27753;55.724;37.612;2022-07-17T15:53:02;22.50;52.50
42095;DHT22;27753;55.724;37.612;2022-07-17T15:55:28;22.50;52.40
42095;DHT22;27753;55.724;37.612;2022-07-17T15:57:54;22.40;52.50
42095;DHT22;27753;55.724;37.612;2022-07-17T16:00:20;22.30;52.60
42095;DHT22;27753;55.724;37.612;2022-07-17T16:02:46;22.20;52.70
42095;DHT22;27753;55.724;37.612;2022-07-17T16:05:12;22.10;52.30
42095;DHT22;27753;55.724;37.612;2022-07-17T16:07:37;22.00;52.40
42095;DHT22;27753;55.724;37.612;2022-07-17T16:10:04;22.00;52.80
42095;DHT22;27753;55.724;37.612;2022-07-17T16:12:30;21.90;52.90
42095;DHT22;27753;55.724;37.612;2022-07-17T16:15:00;21.90;52.70
42095;DHT22;27753;55.724;37.612;2022-07-17T16:17:26;21.90;52.60
42095;DHT22;27753;55.724;37.612;2022-07-17T16:19:54;21.80;52.60